Time;durP1;ratioP1;P1;durP2;ratioP2;P2;SDS_P1;SDS_P2;PMS_P1;PMS_P2;Temp;Humidity;BMP_temperature;BMP_pressure;BME280_temperature;BME280_humidity;BME280_pressure;Samples;Min_cycle;Max_cycle;Signal;HPM_P1;HPM_P2
2023/04/06 00:00:08;;;;;;;26.17;11.48;;;;;;;7.05;75.03;100530.41;4905199;28;20061;-57
2023/04/06 00:02:40;;;;;;;31.23;10.40;;;;;;;7.26;74.52;100560.75;4910596;28;20057;-54
2023/04/06 00:05:11;;;;;;;24.17;9.38;;;;;;;7.32;74.75;100561.63;4911064;28;20098;-56
2023/04/06 00:07:42;;;;;;;30.58;9.38;;;;;;;7.38;74.67;100565.13;4910839;28;20059;-56
2023/04/06 00:10:13;;;;;;;23.83;9.50;;;;;;;7.44;74.77;100572.91;4910857;28;20240;-57
2023/04/06 00:12:44;;;;;;;25.55;10.75;;;;;;;7.56;74.15;100559.91;4908025;28;20051;-56
2023/04/06 00:15:14;;;;;;;33.25;10.55;;;;;;;7.63;74.04;100551.25;4910446;28;20038;-56
2023/04/06 00:17:47;;;;;;;24.98;10.57;;;;;;;7.70;73.78;100558.19;4905178;28;20050;-56
2023/04/06 00:20:18;;;;;;;37.45;10.55;;;;;;;7.78;73.69;100546.03;4911274;28;20109;-56
2023/04/06 00:22:48;;;;;;;30.25;9.88;;;;;;;7.88;73.35;100553.84;4909231;28;20498;-54
2023/04/06 00:25:19;;;;;;;27.65;9.85;;;;;;;7.92;72.82;100548.66;4909733;28;20055;-55
2023/04/06 00:27:50;;;;;;;34.53;11.07;;;;;;;7.94;72.96;100557.34;4909245;28;20136;-55
2023/04/06 00:30:21;;;;;;;23.33;10.13;;;;;;;8.00;72.53;100551.25;4908574;28;20498;-52
2023/04/06 00:32:53;;;;;;;22.45;9.75;;;;;;;7.99;72.03;100534.78;4900516;28;20049;-54
2023/04/06 00:35:24;;;;;;;23.00;9.50;;;;;;;7.95;71.62;100547.78;4903151;28;20051;-54
2023/04/06 00:37:55;;;;;;;28.42;10.05;;;;;;;7.99;71.87;100549.53;4891663;28;20088;-54
2023/04/06 00:40:28;;;;;;;30.45;10.52;;;;;;;7.85;71.84;100525.25;4916571;28;20057;-54
2023/04/06 00:42:59;;;;;;;18.90;9.10;;;;;;;8.02;71.66;100533.91;4888878;28;20057;-57
2023/04/06 00:45:30;;;;;;;16.15;7.75;;;;;;;8.06;71.86;100533.00;4888903;28;20049;-57
2023/04/06 00:48:03;;;;;;;20.05;6.70;;;;;;;8.15;71.90;100524.34;4887047;28;20060;-56
2023/04/06 00:50:34;;;;;;;11.95;6.57;;;;;;;8.30;71.82;100526.03;4887799;28;20059;-57
2023/04/06 00:53:05;;;;;;;10.50;5.40;;;;;;;8.33;71.43;100523.41;4895148;28;20060;-55
2023/04/06 00:55:35;;;;;;;12.13;6.30;;;;;;;8.38;71.84;100526.88;4900112;28;20054;-56
2023/04/06 00:58:07;;;;;;;17.45;6.30;;;;;;;8.30;71.75;100523.44;4894114;28;20451;-56
2023/04/06 01:00:38;;;;;;;12.40;5.65;;;;;;;8.19;71.70;100516.50;4902301;28;20050;-56
2023/04/06 01:03:10;;;;;;;14.05;6.68;;;;;;;8.19;72.05;100511.31;4915934;28;20032;-57
2023/04/06 01:05:42;;;;;;;11.13;5.82;;;;;;;8.26;72.30;100512.13;4895033;28;20086;-55
2023/04/06 01:08:13;;;;;;;15.45;5.65;;;;;;;8.15;72.65;100504.38;4893253;28;20147;-56
2023/04/06 01:10:43;;;;;;;12.52;6.07;;;;;;;8.04;72.57;100505.25;4892232;28;20049;-57
2023/04/06 01:13:19;;;;;;;16.98;6.47;;;;;;;7.82;73.42;100500.09;4893500;28;20044;-57
2023/04/06 01:15:51;;;;;;;13.43;6.55;;;;;;;7.82;73.93;100502.72;4883455;28;20444;-57
2023/04/06 01:18:28;;;;;;;14.98;6.28;;;;;;;7.80;74.28;100498.38;4892082;28;20430;-57
2023/04/06 01:20:59;;;;;;;15.10;6.20;;;;;;;7.75;74.52;100504.44;4894465;28;20734;-55
2023/04/06 01:23:31;;;;;;;12.82;6.80;;;;;;;7.70;74.48;100498.38;4883118;28;20064;-56
2023/04/06 01:26:02;;;;;;;17.17;6.00;;;;;;;7.68;74.77;100492.31;4891205;28;20902;-57
2023/04/06 01:28:33;;;;;;;14.70;5.63;;;;;;;7.68;75.29;100496.66;4890605;28;20088;-56
2023/04/06 01:31:03;;;;;;;9.60;5.55;;;;;;;7.77;74.96;100487.09;4893646;28;20081;-57
2023/04/06 01:33:35;;;;;;;17.27;6.10;;;;;;;7.86;74.92;100474.94;4892638;28;23163;-55
2023/04/06 01:36:06;;;;;;;14.75;5.95;;;;;;;8.09;74.76;100496.59;4906387;28;21307;-56
2023/04/06 01:38:38;;;;;;;13.75;5.90;;;;;;;8.20;74.50;100487.00;4899559;28;20063;-56
2023/04/06 01:41:09;;;;;;;19.77;6.40;;;;;;;8.24;73.92;100481.78;4906774;28;20053;-56
2023/04/06 01:43:40;;;;;;;11.68;6.20;;;;;;;8.26;73.12;100487.84;4905467;28;20052;-56
2023/04/06 01:46:12;;;;;;;12.27;6.22;;;;;;;8.15;73.51;100493.97;4899785;28;20049;-57
2023/04/06 01:48:42;;;;;;;12.65;5.90;;;;;;;8.11;73.71;100492.25;4900280;28;20055;-56
2023/04/06 01:51:13;;;;;;;14.90;5.88;;;;;;;8.13;73.91;100485.28;4902257;28;20056;-56
2023/04/06 01:53:45;;;;;;;14.07;6.93;;;;;;;8.26;74.04;100493.06;4901489;28;20049;-56
2023/04/06 01:56:17;;;;;;;12.90;5.68;;;;;;;8.42;73.92;100486.97;4890337;28;20826;-56
2023/04/06 01:58:47;;;;;;;10.90;6.28;;;;;;;8.67;73.40;100460.81;4900603;28;20534;-56
2023/04/06 02:01:18;;;;;;;9.68;5.68;;;;;;;8.86;72.51;100465.00;4889569;28;20066;-56
2023/04/06 02:03:49;;;;;;;11.38;5.65;;;;;;;8.99;72.11;100438.03;4899094;28;20063;-56
2023/04/06 02:06:20;;;;;;;12.05;6.07;;;;;;;9.11;71.36;100454.44;4888322;28;20155;-56
2023/04/06 02:08:52;;;;;;;14.55;5.90;;;;;;;9.30;70.61;100448.19;4901377;28;20061;-57
2023/04/06 02:11:23;;;;;;;10.85;5.45;;;;;;;8.80;69.83;100358.25;4896277;28;20044;-55
2023/04/06 02:13:54;;;;;;;12.45;5.63;;;;;;;9.29;70.00;100430.84;4896796;28;20106;-56
2023/04/06 02:16:25;;;;;;;10.50;4.85;;;;;;;9.33;70.06;100424.69;4896683;28;20062;-55
2023/04/06 02:18:55;;;;;;;13.95;5.35;;;;;;;9.36;69.89;100421.19;4901551;28;20152;-55
2023/04/06 02:21:26;;;;;;;7.93;5.05;;;;;;;9.45;69.86;100432.41;4898640;28;20464;-54
2023/04/06 02:23:58;;;;;;;15.45;9.57;;;;;;;9.39;69.42;100432.50;4895841;28;20049;-56
2023/04/06 02:26:29;;;;;;;19.23;6.97;;;;;;;9.42;70.16;100437.66;4897048;28;20461;-56
2023/04/06 02:29:01;;;;;;;13.88;5.90;;;;;;;9.31;69.71;100428.19;4895680;28;20467;-56
2023/04/06 02:31:32;;;;;;;9.20;5.55;;;;;;;9.09;69.82;100428.41;4896430;28;20076;-55
2023/04/06 02:34:03;;;;;;;11.13;5.68;;;;;;;8.95;70.75;100425.88;4895863;28;20156;-56
2023/04/06 02:36:34;;;;;;;12.63;6.30;;;;;;;8.92;71.03;100425.91;4895931;28;20163;-54
2023/04/06 02:39:06;;;;;;;11.13;5.80;;;;;;;8.88;71.50;100429.41;4893587;28;20142;-56
2023/04/06 02:41:38;;;;;;;18.15;6.20;;;;;;;8.57;71.91;100387.91;4895925;28;20475;-56
2023/04/06 02:44:09;;;;;;;12.63;6.55;;;;;;;8.84;71.93;100425.09;4897717;28;20047;-56
2023/04/06 02:46:40;;;;;;;15.02;7.10;;;;;;;8.78;72.22;100425.13;4896895;28;20052;-56
2023/04/06 02:49:11;;;;;;;21.85;14.40;;;;;;;8.64;72.67;100431.28;4895527;28;20075;-56
2023/04/06 02:51:42;;;;;;;21.52;10.27;;;;;;;8.52;73.02;100431.34;4896251;28;20052;-56
2023/04/06 02:54:14;;;;;;;20.80;8.60;;;;;;;8.24;73.47;100377.66;4897253;28;20078;-56
2023/04/06 02:56:45;;;;;;;20.38;9.02;;;;;;;8.37;73.60;100408.84;4891781;28;20060;-55
2023/04/06 02:59:16;;;;;;;23.08;8.80;;;;;;;8.31;73.99;100406.28;4901763;28;20049;-56
2023/04/06 03:01:47;;;;;;;20.08;8.30;;;;;;;8.27;74.38;100408.91;4897775;28;20053;-56
2023/04/06 03:04:17;;;;;;;18.23;7.85;;;;;;;8.29;74.79;100396.75;4895748;28;20634;-55
2023/04/06 03:06:48;;;;;;;25.85;8.98;;;;;;;8.37;75.16;100394.97;4896736;28;20045;-56
2023/04/06 03:09:21;;;;;;;25.95;8.63;;;;;;;8.47;75.64;100396.66;4897641;28;20056;-56
2023/04/06 03:11:51;;;;;;;23.70;10.32;;;;;;;8.46;76.25;100401.88;4895063;28;20481;-55
2023/04/06 03:14:25;;;;;;;15.20;8.88;;;;;;;8.42;76.66;100398.44;4893418;28;20057;-55
2023/04/06 03:16:56;;;;;;;21.23;8.65;;;;;;;8.37;77.45;100379.34;4901116;28;20053;-55
2023/04/06 03:19:26;;;;;;;18.35;8.82;;;;;;;8.43;77.99;100379.31;4895501;28;20070;-54
2023/04/06 03:21:58;;;;;;;19.08;8.52;;;;;;;8.12;78.13;100336.94;4893382;28;20066;-56
2023/04/06 03:24:30;;;;;;;18.25;8.38;;;;;;;8.44;78.13;100365.44;4895239;28;20040;-54
2023/04/06 03:27:01;;;;;;;21.25;8.18;;;;;;;8.50;78.71;100360.19;4894973;28;20063;-56
2023/04/06 03:29:32;;;;;;;22.50;8.80;;;;;;;8.45;78.83;100366.31;4895108;28;20107;-56
2023/04/06 03:32:03;;;;;;;18.95;8.18;;;;;;;8.44;79.09;100360.22;4895211;28;20171;-56
2023/04/06 03:34:33;;;;;;;23.25;8.68;;;;;;;8.39;79.46;100346.34;4890362;28;20057;-56
2023/04/06 03:37:04;;;;;;;19.17;8.63;;;;;;;8.41;80.57;100355.91;4884587;28;21565;-55
2023/04/06 03:39:41;;;;;;;17.75;8.73;;;;;;;8.45;81.00;100340.25;4873838;28;20112;-56
2023/04/06 03:42:11;;;;;;;24.77;14.55;;;;;;;8.46;80.62;100342.84;4884371;28;20058;-56
2023/04/06 03:44:42;;;;;;;21.45;9.02;;;;;;;8.47;81.11;100349.78;4884199;28;20486;-56
2023/04/06 03:47:13;;;;;;;25.60;10.38;;;;;;;8.46;81.58;100337.63;4885114;28;20053;-56
2023/04/06 03:49:44;;;;;;;23.92;9.73;;;;;;;8.47;82.13;100334.16;4883502;28;20617;-56
2023/04/06 03:52:14;;;;;;;20.92;9.73;;;;;;;8.47;82.48;100323.75;4884132;28;20061;-56
2023/04/06 03:54:47;;;;;;;20.85;9.70;;;;;;;8.20;82.09;100283.09;4891336;28;20054;-55
2023/04/06 03:57:17;;;;;;;23.35;9.77;;;;;;;8.48;82.08;100330.69;4885033;28;20049;-56
2023/04/06 03:59:48;;;;;;;25.15;9.95;;;;;;;8.34;82.42;100309.06;4884692;28;20057;-56
2023/04/06 04:02:19;;;;;;;27.63;10.88;;;;;;;8.39;83.09;100315.09;4885068;28;20049;-56
2023/04/06 04:04:50;;;;;;;27.20;10.18;;;;;;;8.43;83.34;100316.81;4884268;28;20060;-56
2023/04/06 04:07:21;;;;;;;22.08;10.63;;;;;;;8.41;83.81;100302.94;4884531;28;20045;-56
2023/04/06 04:09:53;;;;;;;29.77;10.75;;;;;;;8.43;84.24;100301.19;4884065;28;20056;-56
2023/04/06 04:12:24;;;;;;;24.00;10.45;;;;;;;8.35;84.17;100287.34;4883035;28;20322;-56
2023/04/06 04:14:54;;;;;;;25.90;11.02;;;;;;;8.40;84.30;100296.03;4884300;28;20138;-57
2023/04/06 04:17:26;;;;;;;23.90;10.23;;;;;;;8.34;84.76;100285.63;4892048;28;20096;-56
2023/04/06 04:19:57;;;;;;;24.80;10.80;;;;;;;8.30;85.15;100279.56;4884919;28;20057;-55
2023/04/06 04:22:28;;;;;;;23.95;11.40;;;;;;;8.28;85.08;100283.06;4883693;28;20107;-56
2023/04/06 04:25:01;;;;;;;22.65;11.45;;;;;;;8.29;85.64;100282.19;4883518;28;20677;-56
2023/04/06 04:27:31;;;;;;;21.00;10.88;;;;;;;8.27;85.94;100273.53;4884519;28;20053;-56
2023/04/06 04:30:02;;;;;;;23.98;11.52;;;;;;;8.30;86.10;100278.69;4883361;28;20052;-56
2023/04/06 04:32:33;;;;;;;27.92;12.13;;;;;;;8.39;86.61;100257.81;4883712;28;20559;-55
2023/04/06 04:35:05;;;;;;;25.00;11.50;;;;;;;8.45;86.08;100263.00;4893970;28;20060;-56
2023/04/06 04:37:36;;;;;;;22.98;11.95;;;;;;;8.50;86.60;100256.00;4892582;28;20061;-56
2023/04/06 04:40:10;;;;;;;25.27;12.13;;;;;;;8.40;86.47;100259.56;4900975;28;20245;-56
2023/04/06 04:42:42;;;;;;;26.42;11.95;;;;;;;8.30;86.69;100247.47;4899527;28;20040;-56
2023/04/06 04:45:14;;;;;;;24.73;11.35;;;;;;;8.24;86.88;100252.69;4899003;28;20060;-56
2023/04/06 04:47:44;;;;;;;25.98;11.43;;;;;;;8.16;87.11;100256.25;4900253;28;20109;-55
2023/04/06 04:50:16;;;;;;;24.52;10.88;;;;;;;7.92;87.14;100246.84;4906212;28;20147;-55
2023/04/06 04:52:48;;;;;;;22.48;11.20;;;;;;;7.85;87.29;100249.50;4899591;28;20518;-56
2023/04/06 04:55:20;;;;;;;21.55;11.13;;;;;;;7.80;87.80;100235.66;4901323;28;20048;-56
2023/04/06 04:57:51;;;;;;;17.77;11.70;;;;;;;7.83;88.32;100227.81;4900334;28;20061;-56
2023/04/06 05:00:22;;;;;;;24.00;12.13;;;;;;;7.86;88.22;100220.88;4899827;28;20589;-56
2023/04/06 05:02:53;;;;;;;20.92;10.90;;;;;;;7.30;88.66;100124.09;4899718;28;20398;-56
2023/04/06 05:05:24;;;;;;;21.02;11.30;;;;;;;7.80;88.82;100199.22;4901138;28;20075;-55
2023/04/06 05:07:54;;;;;;;19.80;11.20;;;;;;;7.80;89.05;100194.88;4900201;28;20480;-56
2023/04/06 05:10:27;;;;;;;22.65;11.73;;;;;;;7.42;88.78;100124.91;4895728;28;20195;-55
2023/04/06 05:12:57;;;;;;;21.02;10.90;;;;;;;7.77;89.09;100195.75;4899987;28;20057;-55
2023/04/06 05:15:28;;;;;;;22.23;11.32;;;;;;;7.78;89.07;100192.28;4900169;28;20067;-56
2023/04/06 05:17:59;;;;;;;18.45;11.07;;;;;;;7.72;89.31;100187.13;4900509;28;20537;-56
2023/04/06 05:20:30;;;;;;;20.60;11.55;;;;;;;7.62;89.48;100175.06;4899020;28;20060;-56
2023/04/06 05:23:01;;;;;;;23.45;12.07;;;;;;;7.43;89.80;100171.69;4900649;28;20072;-56
2023/04/06 05:25:34;;;;;;;24.35;11.88;;;;;;;7.09;90.35;100152.78;4900451;28;20060;-56
2023/04/06 05:28:05;;;;;;;21.42;10.82;;;;;;;7.20;90.92;100170.94;4897644;28;20453;-56
2023/04/06 05:30:36;;;;;;;23.83;11.27;;;;;;;7.08;91.77;100151.91;4904880;28;20057;-57
2023/04/06 05:33:07;;;;;;;25.02;11.55;;;;;;;6.85;92.15;100128.63;4900523;28;20045;-56
2023/04/06 05:35:38;;;;;;;23.38;11.23;;;;;;;7.02;93.30;100162.34;4899850;28;20045;-55
2023/04/06 05:38:12;;;;;;;26.20;11.73;;;;;;;6.59;93.77;100099.25;4900550;28;20060;-56
2023/04/06 05:40:44;;;;;;;29.15;12.35;;;;;;;6.87;94.10;100158.06;4901014;28;20040;-56
2023/04/06 05:43:15;;;;;;;27.13;12.63;;;;;;;6.78;94.63;100152.88;4898409;28;20381;-55
2023/04/06 05:45:47;;;;;;;29.17;12.23;;;;;;;6.71;95.46;100151.16;4905037;28;20647;-56
2023/04/06 05:48:17;;;;;;;22.08;12.82;;;;;;;6.70;96.06;100154.63;4906059;28;20056;-56
2023/04/06 05:50:51;;;;;;;25.95;12.35;;;;;;;6.34;96.35;100094.16;4900151;28;20144;-56
2023/04/06 05:53:22;;;;;;;24.73;11.40;;;;;;;6.61;96.83;100154.66;4900007;28;20052;-56
2023/04/06 05:55:54;;;;;;;18.98;10.02;;;;;;;6.18;95.13;100159.88;4900108;28;20646;-56
2023/04/06 05:58:25;;;;;;;24.10;10.55;;;;;;;5.68;94.80;100152.91;4898586;28;20057;-55
2023/04/06 06:00:59;;;;;;;23.27;9.68;;;;;;;5.36;94.92;100158.88;4902818;28;20132;-55
2023/04/06 06:03:30;;;;;;;26.42;11.82;;;;;;;5.12;96.22;100155.34;4898849;28;20053;-53
2023/04/06 06:06:04;;;;;;;27.55;11.73;;;;;;;4.82;96.97;100152.59;4901710;28;20160;-53
2023/04/06 06:08:35;;;;;;;25.35;10.82;;;;;;;4.63;98.11;100152.50;4896133;28;20161;-52
2023/04/06 06:11:08;;;;;;;24.27;10.85;;;;;;;4.44;98.01;100150.63;4901539;28;20049;-51
2023/04/06 06:13:39;;;;;;;20.13;9.80;;;;;;;4.11;98.11;100136.63;4900282;28;20163;-53
2023/04/06 06:16:09;;;;;;;18.35;8.35;;;;;;;4.04;98.52;100142.59;4900058;28;20049;-50
2023/04/06 06:18:40;;;;;;;16.10;8.25;;;;;;;3.91;98.66;100133.00;4899315;28;20365;-53
2023/04/06 06:21:12;;;;;;;16.80;7.93;;;;;;;3.83;98.56;100131.22;4898542;28;20604;-52
2023/04/06 06:23:44;;;;;;;17.75;7.70;;;;;;;3.81;98.99;100122.56;4900667;28;20036;-53
2023/04/06 06:26:17;;;;;;;21.17;8.07;;;;;;;3.50;98.84;100102.50;4897727;28;20058;-51
2023/04/06 06:28:47;;;;;;;22.25;8.32;;;;;;;3.58;98.40;100134.44;4898980;28;20048;-54
2023/04/06 06:31:20;;;;;;;19.00;8.38;;;;;;;3.25;98.73;100094.50;4900021;28;20056;-53
2023/04/06 06:33:51;;;;;;;23.73;8.88;;;;;;;3.53;99.24;100141.28;4899558;28;20434;-53
2023/04/06 06:36:21;;;;;;;22.00;8.38;;;;;;;3.46;99.20;100141.19;4898868;28;20045;-53
2023/04/06 06:38:52;;;;;;;16.67;8.05;;;;;;;3.34;98.72;100141.06;4897918;28;20052;-54
2023/04/06 06:41:25;;;;;;;18.17;7.57;;;;;;;3.20;99.36;100132.31;4900302;28;20053;-54
2023/04/06 06:43:56;;;;;;;14.73;8.23;;;;;;;3.07;99.30;100143.31;4900633;28;20053;-54
2023/04/06 06:46:27;;;;;;;19.75;8.15;;;;;;;3.07;99.30;100130.41;4898795;28;20041;-53
2023/04/06 06:48:58;;;;;;;16.60;9.15;;;;;;;3.00;99.15;100135.50;4899915;28;20162;-53
2023/04/06 06:51:29;;;;;;;19.30;9.32;;;;;;;2.89;98.91;100131.91;4899295;28;20049;-52
2023/04/06 06:54:01;;;;;;;19.85;9.95;;;;;;;2.83;99.38;100128.41;4896677;28;20875;-52
2023/04/06 06:56:35;;;;;;;19.23;9.60;;;;;;;2.59;99.36;100091.13;4897556;28;20041;-52
2023/04/06 06:59:06;;;;;;;24.50;9.00;;;;;;;2.69;99.57;100110.16;4892563;28;20142;-57
2023/04/06 07:01:38;;;;;;;15.85;7.78;;;;;;;2.61;99.03;100099.75;4899155;28;20467;-55
2023/04/06 07:04:09;;;;;;;16.60;7.88;;;;;;;2.08;99.68;100018.25;4898794;28;20076;-55
2023/04/06 07:06:40;;;;;;;19.40;8.57;;;;;;;2.60;100.00;100103.19;4900961;28;20482;-54
2023/04/06 07:09:10;;;;;;;17.25;8.27;;;;;;;2.57;100.00;100093.69;4900787;28;20079;-55
2023/04/06 07:11:43;;;;;;;15.85;8.25;;;;;;;2.51;100.00;100109.06;4902282;28;20045;-55
2023/04/06 07:14:13;;;;;;;14.07;8.55;;;;;;;2.38;100.00;100086.53;4902971;28;20040;-55
2023/04/06 07:16:44;;;;;;;19.13;9.68;;;;;;;2.41;100.00;100084.00;4901902;28;20143;-55
2023/04/06 07:19:15;;;;;;;23.40;9.48;;;;;;;2.45;100.00;100083.22;4897134;28;20554;-55
2023/04/06 07:21:46;;;;;;;15.60;8.63;;;;;;;2.41;100.00;100081.41;4904655;28;20208;-56
2023/04/06 07:24:16;;;;;;;18.85;8.77;;;;;;;2.30;100.00;100083.00;4906614;28;20048;-55
2023/04/06 07:26:49;;;;;;;17.73;9.38;;;;;;;1.96;100.00;100051.56;4903835;28;20053;-56
2023/04/06 07:29:19;;;;;;;18.73;10.05;;;;;;;2.05;100.00;100092.94;4902613;28;20137;-55
2023/04/06 07:31:50;;;;;;;25.80;9.43;;;;;;;2.00;100.00;100094.59;4902423;28;20493;-56
2023/04/06 07:34:21;;;;;;;17.30;8.93;;;;;;;1.90;100.00;100095.28;4901842;28;20072;-56
2023/04/06 07:36:54;;;;;;;25.17;9.02;;;;;;;1.93;100.00;100098.75;4901236;28;20056;-56
2023/04/06 07:39:26;;;;;;;22.67;9.05;;;;;;;1.81;99.29;100103.72;4905592;28;20073;-55
2023/04/06 07:41:58;;;;;;;23.15;9.27;;;;;;;1.76;100.00;100094.19;4894239;28;20730;-56
2023/04/06 07:44:29;;;;;;;16.60;8.88;;;;;;;1.61;100.00;100095.66;4902246;28;20041;-55
2023/04/06 07:47:00;;;;;;;26.85;7.13;;;;;;;1.29;99.24;100052.19;4901945;28;20048;-55
2023/04/06 07:49:32;;;;;;;14.40;7.63;;;;;;;0.83;99.64;99999.91;4901571;28;20053;-56
2023/04/06 07:52:02;;;;;;;18.88;8.95;;;;;;;1.42;99.58;100109.94;4900734;28;20048;-56
2023/04/06 07:54:33;;;;;;;20.60;8.75;;;;;;;1.34;99.69;100096.03;4901106;28;20055;-56
2023/04/06 07:57:06;;;;;;;18.38;8.07;;;;;;;1.34;99.88;100105.47;4901283;28;20049;-55
2023/04/06 07:59:36;;;;;;;21.17;7.95;;;;;;;1.25;100.00;100081.31;4894511;28;20440;-56
2023/04/06 08:02:16;;;;;;;18.30;9.18;;;;;;;1.26;100.00;100077.88;4901813;28;20136;-56
2023/04/06 08:04:54;;;;;;;17.05;8.40;;;;;;;1.24;100.00;100074.41;4889791;28;20053;-56
2023/04/06 08:07:51;;;;;;;19.45;10.10;;;;;;;1.10;100.00;100055.28;4890364;28;20056;-55
2023/04/06 08:10:42;;;;;;;18.05;9.70;;;;;;;1.11;100.00;100077.59;4890110;28;20135;-55
2023/04/06 08:13:15;;;;;;;15.75;8.45;;;;;;;1.06;100.00;100079.22;4900077;28;20139;-56
2023/04/06 08:15:48;;;;;;;21.70;9.73;;;;;;;0.77;100.00;100022.91;4894822;28;20116;-55
2023/04/06 08:18:19;;;;;;;20.35;10.07;;;;;;;1.00;100.00;100059.38;4901870;28;20137;-55
2023/04/06 08:20:58;;;;;;;24.00;10.07;;;;;;;0.95;100.00;100065.25;4906495;28;20084;-56
2023/04/06 08:23:29;;;;;;;16.80;9.52;;;;;;;0.90;100.00;100056.59;4892269;28;20123;-56
2023/04/06 08:26:00;;;;;;;18.75;9.50;;;;;;;0.91;100.00;100068.63;4902431;28;20147;-56
2023/04/06 08:28:34;;;;;;;16.15;9.18;;;;;;;0.80;100.00;100082.16;4900733;28;20089;-55
2023/04/06 08:31:06;;;;;;;19.40;10.38;;;;;;;0.68;100.00;100071.63;4899622;28;20404;-55
2023/04/06 08:33:39;;;;;;;20.70;10.57;;;;;;;0.60;100.00;100062.84;4901949;28;20716;-55
2023/04/06 08:36:11;;;;;;;24.83;10.13;;;;;;;0.63;100.00;100073.22;4901021;28;20390;-56
2023/04/06 08:38:42;;;;;;;18.38;10.30;;;;;;;0.53;100.00;100066.16;4899948;28;20145;-56
2023/04/06 08:41:16;;;;;;;29.73;11.23;;;;;;;0.54;100.00;100073.03;4902284;28;20066;-55
2023/04/06 08:43:50;;;;;;;19.42;9.40;;;;;;;-0.13;100.00;99961.94;4891482;28;20476;-56
2023/04/06 08:46:28;;;;;;;16.90;10.68;;;;;;;0.46;100.00;100075.44;4901393;28;20060;-55
2023/04/06 08:49:00;;;;;;;22.05;10.57;;;;;;;0.46;100.00;100074.56;4892376;28;20576;-56
2023/04/06 08:51:31;;;;;;;20.35;10.75;;;;;;;0.32;100.00;100046.00;4890095;28;20045;-56
2023/04/06 08:54:02;;;;;;;20.75;9.63;;;;;;;0.40;100.00;100055.63;4898216;28;20138;-55
2023/04/06 08:56:33;;;;;;;19.30;10.07;;;;;;;0.36;100.00;100069.22;4899612;28;20056;-56
2023/04/06 08:59:07;;;;;;;15.82;9.02;;;;;;;0.31;100.00;100050.28;4899889;28;20044;-56
2023/04/06 09:01:42;;;;;;;21.95;9.90;;;;;;;0.22;100.00;100034.66;4890042;28;20080;-55
2023/04/06 09:04:14;;;;;;;17.63;10.05;;;;;;;0.30;100.00;100043.41;4899982;28;20053;-56
2023/04/06 09:06:49;;;;;;;20.20;8.90;;;;;;;0.29;100.00;100044.22;4896731;28;20064;-56
2023/04/06 09:09:20;;;;;;;13.55;8.23;;;;;;;0.19;100.00;100034.59;4899925;28;20080;-55
2023/04/06 09:11:55;;;;;;;16.50;8.70;;;;;;;0.13;100.00;100013.91;4899114;28;20044;-55
2023/04/06 09:14:38;;;;;;;14.32;9.10;;;;;;;0.22;100.00;100014.09;4892442;28;20049;-59
2023/04/06 09:17:09;;;;;;;14.02;8.27;;;;;;;0.28;100.00;100014.22;4890614;28;20048;-55
2023/04/06 09:19:48;;;;;;;14.65;8.68;;;;;;;0.22;100.00;100008.94;4899557;28;20053;-56
2023/04/06 09:22:24;;;;;;;17.75;9.80;;;;;;;0.28;100.00;100014.22;4889696;28;20060;-56
2023/04/06 09:24:56;;;;;;;15.88;9.55;;;;;;;0.34;100.00;100011.78;4897329;28;20057;-55
2023/04/06 09:27:34;;;;;;;24.70;9.10;;;;;;;-0.12;100.00;99926.03;4899898;28;20056;-56
2023/04/06 09:30:13;;;;;;;14.40;9.30;;;;;;;0.39;100.00;100002.47;4898561;28;20048;-56
2023/04/06 09:32:49;;;;;;;15.50;8.10;;;;;;;0.40;100.00;100009.34;4889738;28;20495;-55
2023/04/06 09:35:21;;;;;;;13.25;7.03;;;;;;;0.26;100.00;99992.78;4888885;28;20049;-56
2023/04/06 09:37:53;;;;;;;15.25;9.02;;;;;;;0.24;100.00;99991.88;4898986;28;20340;-56
2023/04/06 09:40:24;;;;;;;12.02;7.95;;;;;;;0.36;100.00;100014.38;4900232;28;20110;-56
2023/04/06 09:42:59;;;;;;;12.70;7.90;;;;;;;0.36;100.00;100017.81;4893243;28;20044;-56
2023/04/06 09:45:32;;;;;;;15.20;7.57;;;;;;;0.35;100.00;100016.09;4901675;28;20457;-55
2023/04/06 09:48:05;;;;;;;21.98;8.77;;;;;;;0.40;100.00;100009.34;4900062;28;20066;-55
2023/04/06 09:50:37;;;;;;;11.15;6.97;;;;;;;0.35;100.00;100008.41;4895445;28;20044;-55
2023/04/06 09:53:09;;;;;;;11.07;5.78;;;;;;;0.36;100.00;100002.41;4899739;28;20049;-55
2023/04/06 09:55:45;;;;;;;13.95;6.78;;;;;;;0.25;100.00;99988.47;4900423;28;20464;-55
2023/04/06 09:58:25;;;;;;;15.07;6.03;;;;;;;0.27;100.00;100002.19;4890750;28;20144;-56
2023/04/06 10:01:07;;;;;;;9.18;6.30;;;;;;;0.29;100.00;100007.38;4888130;28;20133;-55
2023/04/06 10:03:47;;;;;;;14.38;6.88;;;;;;;0.34;100.00;100009.22;4889013;28;20056;-56
2023/04/06 10:06:25;;;;;;;8.52;5.78;;;;;;;0.34;100.00;99993.78;4889973;28;20080;-55
2023/04/06 10:08:58;;;;;;;12.63;6.68;;;;;;;0.32;100.00;99994.59;4891349;28;20053;-55
2023/04/06 10:11:30;;;;;;;12.35;6.45;;;;;;;0.41;100.00;100005.94;4899101;28;20053;-56
2023/04/06 10:14:00;;;;;;;11.18;6.45;;;;;;;0.40;100.00;100014.50;4899258;28;20122;-56
2023/04/06 10:16:34;;;;;;;9.77;5.47;;;;;;;0.38;100.00;100016.16;4898917;28;20052;-56
2023/04/06 10:19:11;;;;;;;8.75;5.47;;;;;;;0.24;100.00;99997.00;4898132;28;21116;-56
2023/04/06 10:21:45;;;;;;;9.63;5.60;;;;;;;-0.17;100.00;99945.63;4888973;28;20084;-56
2023/04/06 10:24:18;;;;;;;10.18;5.47;;;;;;;0.27;100.00;100017.63;4889813;28;20061;-55
2023/04/06 10:27:00;;;;;;;12.90;4.80;;;;;;;0.19;100.00;100019.16;4899331;28;20471;-56
2023/04/06 10:29:42;;;;;;;8.57;4.88;;;;;;;-0.04;100.00;99981.00;4888555;28;20079;-55
2023/04/06 10:32:15;;;;;;;8.77;5.03;;;;;;;0.01;100.00;99993.09;4889682;28;20063;-55
2023/04/06 10:34:46;;;;;;;14.05;5.07;;;;;;;0.12;100.00;100012.16;4904908;28;20067;-56
2023/04/06 10:37:18;;;;;;;9.13;5.38;;;;;;;0.05;100.00;100010.28;4901518;28;20411;-56
2023/04/06 10:39:54;;;;;;;11.82;6.10;;;;;;;-0.12;100.00;99964.56;4900772;28;20048;-56
2023/04/06 10:42:38;;;;;;;12.13;5.10;;;;;;;0.06;100.00;100006.91;4899916;28;20050;-56
2023/04/06 10:45:23;;;;;;;8.18;5.22;;;;;;;0.03;100.00;99996.56;4890508;28;20048;-56
2023/04/06 10:48:00;;;;;;;10.02;5.30;;;;;;;0.06;100.00;99999.19;4891686;28;21016;-56
2023/04/06 10:50:32;;;;;;;7.78;5.13;;;;;;;0.00;100.00;99971.69;4890753;28;20061;-56
2023/04/06 10:53:04;;;;;;;11.38;5.32;;;;;;;0.06;100.00;99989.78;4899862;28;20044;-56
2023/04/06 10:55:39;;;;;;;9.60;5.88;;;;;;;0.07;100.00;99982.94;4900406;28;21053;-56
2023/04/06 10:58:10;;;;;;;15.70;5.45;;;;;;;-0.56;100.00;99897.69;4892464;28;20063;-56
2023/04/06 11:00:47;;;;;;;11.63;4.93;;;;;;;0.02;100.00;99989.69;4900827;28;20040;-56
2023/04/06 11:03:22;;;;;;;13.23;5.63;;;;;;;-0.02;100.00;99984.47;4891433;28;20127;-55
2023/04/06 11:05:55;;;;;;;8.50;4.70;;;;;;;-0.01;100.00;99988.78;4897538;28;20114;-55
2023/04/06 11:08:28;;;;;;;8.48;4.90;;;;;;;0.01;100.00;99983.69;4903584;28;20523;-55
2023/04/06 11:11:15;;;;;;;9.82;5.43;;;;;;;0.03;100.00;99978.59;4901139;28;20469;-56
2023/04/06 11:13:46;;;;;;;10.48;5.50;;;;;;;-0.01;100.00;99985.34;4885600;28;20041;-55
2023/04/06 11:16:19;;;;;;;11.48;5.18;;;;;;;0.02;100.00;99975.13;4902379;28;20067;-55
2023/04/06 11:18:53;;;;;;;9.40;5.55;;;;;;;0.06;100.00;99971.78;4901011;28;20490;-56
2023/04/06 11:21:39;;;;;;;14.73;5.28;;;;;;;-0.01;100.00;99963.09;4898568;28;20123;-56
2023/04/06 11:24:11;;;;;;;10.00;5.50;;;;;;;-0.53;100.00;99892.63;4889742;28;20543;-56
2023/04/06 11:26:45;;;;;;;11.35;5.43;;;;;;;-0.11;100.00;99963.72;4901277;28;20045;-56
2023/04/06 11:29:22;;;;;;;10.88;5.68;;;;;;;-0.08;100.00;99971.47;4890570;28;20410;-55
2023/04/06 11:31:54;;;;;;;13.52;5.50;;;;;;;-0.07;100.00;99965.53;4903184;28;20059;-55
2023/04/06 11:34:28;;;;;;;10.13;6.05;;;;;;;-0.31;100.00;99923.91;4898039;28;20063;-56
2023/04/06 11:37:05;;;;;;;10.27;4.95;;;;;;;-0.40;100.00;99913.44;4904140;28;20148;-56
2023/04/06 11:39:41;;;;;;;14.18;6.00;;;;;;;-0.34;100.00;99914.44;4897897;28;20114;-55
2023/04/06 11:42:14;;;;;;;21.50;6.03;;;;;;;-0.10;100.00;99970.63;4901084;28;20049;-55
2023/04/06 11:44:46;;;;;;;14.45;5.65;;;;;;;-0.30;100.00;99953.88;4901061;28;21901;-56